Latest Weather Observations for Noarlunga

IDS60801

Issued at 6:34 pm CDT Monday 26 January 2015 (issued every 30 minutes, with the page automatically refreshed every 10 minutes)

About weather observations | Map of weather stations | Latest weather observations for SA | Other Formats
Station Details ID: 023885 Name: NOARLUNGA Lat: -35.16 Lon: 138.51 Height: 55.0 m
Data from the previous 72 hours. | See also: Recent months at Noarlunga
Date/Time
CDT
Temp
°C
App
Temp
°C
Dew
Point
Rel
Hum
%
Delta-T
°C
Wind Press
QNH
hPa
Press
MSL
hPa
Rain
since 9 am
mm
Dir
 
Spd
km/h
Gust
km/h
Spd
kts
Gust
kts
26/06:30pm 19.2 14.2 4.6 38 7.0 S 20 35 11 19 - - 0.0
26/06:00pm 18.3 12.8 4.1 39 6.7 SSE 22 30 12 16 - - 0.0
26/05:30pm 19.6 14.4 3.7 35 7.6 SSE 20 30 11 16 - - 0.0
26/05:00pm 19.1 13.2 4.1 37 7.2 SSE 24 32 13 17 - - 0.0
26/04:30pm 19.9 15.1 4.4 36 7.5 SSE 19 37 10 20 - - 0.0
26/04:00pm 20.5 16.1 4.9 36 7.6 S 17 33 9 18 - - 0.0
26/03:30pm 19.7 14.7 4.6 37 7.3 SSE 20 32 11 17 - - 0.0
26/03:00pm 20.3 16.5 3.9 34 7.9 SE 13 20 7 11 - - 0.0
26/02:30pm 20.1 15.5 5.7 39 7.1 SE 19 28 10 15 - - 0.0
26/02:00pm 19.9 16.1 5.9 40 7.0 SE 15 28 8 15 - - 0.0
26/01:30pm 19.1 14.4 5.9 42 6.5 SE 20 30 11 16 - - 0.0
26/01:00pm 19.4 15.2 5.5 40 6.8 SE 17 28 9 15 - - 0.0
26/12:30pm 19.2 14.9 7.0 45 6.2 SSE 19 28 10 15 - - 0.0
26/12:00pm 19.0 14.8 5.8 42 6.5 SSE 17 26 9 14 - - 0.0
26/11:30am 18.3 13.8 6.2 45 6.0 SE 19 26 10 14 - - 0.0
26/11:00am 17.1 12.2 6.9 51 5.1 SSE 22 28 12 15 - - 0.0
26/10:30am 17.6 14.6 6.2 47 5.6 SSE 11 20 6 11 - - 0.0
26/10:00am 17.6 14.4 6.8 49 5.4 SSE 13 22 7 12 - - 0.0
26/09:30am 17.7 14.3 7.7 52 5.1 SSE 15 22 8 12 - - 0.0
26/09:00am 17.6 15.1 8.2 54 4.8 SSE 11 17 6 9 - - 0.0
26/08:30am 15.8 13.3 8.1 60 3.9 ESE 11 19 6 10 - - 0.0
26/08:00am 14.9 12.4 8.2 64 3.4 SE 11 15 6 8 - - 0.0
26/07:30am 14.4 11.9 8.4 67 3.0 ESE 11 15 6 8 - - 0.0
26/07:00am 13.9 11.8 8.3 69 2.8 SE 9 13 5 7 - - 0.0
26/06:30am 13.6 10.7 8.2 70 2.7 SE 13 19 7 10 - - 0.0
26/06:00am 13.4 9.4 8.9 74 2.3 SE 20 28 11 15 - - 0.0
26/05:30am 13.6 10.5 8.7 72 2.5 SSE 15 20 8 11 - - 0.0
26/05:00am 14.2 10.9 8.2 67 3.0 SE 15 20 8 11 - - 0.0
26/04:30am 14.9 13.8 8.4 65 3.3 S 4 7 2 4 - - 0.0
26/04:00am 14.9 14.2 8.4 65 3.3 SSE 2 4 1 2 - - 0.0
26/03:30am 14.7 14.0 8.4 66 3.2 SE 2 4 1 2 - - 0.0
26/03:00am 14.8 13.7 8.5 66 3.2 SSE 4 6 2 3 - - 0.0
26/02:30am 14.8 13.1 8.5 66 3.2 SSE 7 9 4 5 - - 0.0
26/02:00am 14.7 13.1 8.6 67 3.1 SE 7 11 4 6 - - 0.0
26/01:30am 14.6 12.6 8.5 67 3.1 ESE 9 13 5 7 - - 0.0
26/01:00am 14.4 13.4 9.0 70 2.8 SSE 4 6 2 3 - - 0.0
26/12:30am 14.4 13.2 9.4 72 2.6 SW 6 11 3 6 - - 0.0
26/12:00am 15.4 12.9 6.7 56 4.3 SSE 9 15 5 8 - - 0.0
 
Date/Time
CDT
Temp
°C
App
Temp
°C
Dew
Point
Rel
Hum
%
Delta-T
°C
Wind Press
QNH
hPa
Press
MSL
hPa
Rain
since 9 am
mm
Dir
 
Spd
km/h
Gust
km/h
Spd
kts
Gust
kts
25/11:30pm 15.3 13.4 6.6 56 4.2 SE 6 9 3 5 - - 0.0
25/11:00pm 14.9 12.9 6.2 56 4.2 SSE 6 7 3 4 - - 0.0
25/10:30pm 15.0 12.3 5.8 54 4.4 S 9 11 5 6 - - 0.0
25/10:00pm 15.6 12.6 5.8 52 4.7 S 11 15 6 8 - - 0.0
25/09:30pm 15.6 12.2 5.8 52 4.7 S 13 17 7 9 - - 0.0
25/09:00pm 16.3 12.0 5.3 48 5.3 S 17 26 9 14 - - 0.0
25/08:30pm 16.8 12.0 4.8 45 5.7 S 19 30 10 16 - - 0.0
25/08:00pm 17.1 11.7 4.4 43 6.0 S 22 33 12 18 - - 0.0
25/07:30pm 18.2 13.2 4.7 41 6.5 S 20 32 11 17 - - 0.0
25/07:00pm 19.7 14.9 4.6 37 7.3 SSW 19 28 10 15 - - 0.0
25/06:30pm 20.1 14.6 4.2 35 7.7 SW 22 33 12 18 - - 0.0
25/06:00pm 20.6 15.2 4.6 35 7.8 SW 22 35 12 19 - - 0.0
25/05:30pm 20.6 15.0 5.4 37 7.5 SW 24 33 13 18 - - 0.0
25/05:00pm 20.9 15.9 6.4 39 7.3 SW 22 37 12 20 - - 0.0
25/04:30pm 20.8 15.3 6.0 38 7.4 WSW 24 37 13 20 - - 0.0
25/04:00pm 20.6 14.9 6.5 40 7.1 WSW 26 37 14 20 - - 0.0
25/03:30pm 20.4 15.8 6.4 40 7.1 SW 20 33 11 18 - - 0.0
25/03:00pm 20.8 15.8 4.8 35 7.8 SW 20 32 11 17 - - 0.0
25/02:30pm 20.0 14.8 5.6 39 7.1 SW 22 35 12 19 - - 0.0
25/02:00pm 19.7 14.7 4.6 37 7.3 SW 20 35 11 19 - - 0.0
25/01:30pm 20.1 15.1 4.6 36 7.5 SW 20 35 11 19 - - 0.0
25/01:00pm 18.9 13.6 7.0 46 6.0 WSW 24 39 13 21 - - 0.0
25/12:30pm 19.3 14.3 6.4 43 6.4 WSW 22 37 12 20 - - 0.0
25/12:00pm 18.3 13.3 4.5 40 6.6 WSW 20 28 11 15 - - 0.0
25/11:30am 17.6 12.7 5.2 44 6.0 WSW 20 30 11 16 - - 0.0
25/11:00am 18.9 14.8 6.4 44 6.2 SW 17 24 9 13 - - 0.0
25/10:30am 18.1 13.3 5.7 44 6.1 SW 20 30 11 16 - - 0.0
25/10:00am 17.0 12.6 5.0 45 5.7 SW 17 26 9 14 - - 0.0
25/09:30am 16.9 13.5 5.8 48 5.4 SSW 13 22 7 12 - - 0.0
25/09:00am 16.3 12.2 6.4 52 4.8 SW 17 28 9 15 - - 0.0
25/08:30am 16.1 13.3 7.1 55 4.5 SSW 11 22 6 12 - - 0.0
25/08:00am 15.8 12.7 7.1 56 4.3 SSW 13 24 7 13 - - 0.0
25/07:30am 15.6 13.6 7.1 57 4.2 SW 7 11 4 6 - - 0.0
25/07:00am 15.5 13.0 6.5 55 4.4 S 9 15 5 8 - - 0.0
25/06:30am 15.1 12.2 6.4 56 4.2 S 11 19 6 10 - - 0.0
25/06:00am 14.2 12.5 5.8 57 4.0 S 4 7 2 4 - - 0.0
25/05:30am 14.2 12.1 5.8 57 4.0 S 6 7 3 4 - - 0.0
25/05:00am 15.1 12.2 4.5 49 4.9 SW 9 19 5 10 - - 0.0
25/04:30am 15.4 12.9 6.7 56 4.3 SSW 9 15 5 8 - - 0.0
25/04:00am 15.5 12.0 7.3 58 4.1 SSW 15 22 8 12 - - 0.0
25/03:30am 15.8 13.0 8.5 62 3.7 S 13 19 7 10 - - 0.0
25/03:00am 16.2 12.0 8.2 59 4.1 SW 20 28 11 15 - - 0.0
25/02:30am 16.5 12.4 8.0 57 4.3 SW 19 33 10 18 - - 0.0
25/02:00am 16.7 12.5 8.1 57 4.4 SW 20 35 11 19 - - 0.0
25/01:30am 16.8 13.0 9.2 61 3.9 SW 19 30 10 16 - - 0.0
25/01:00am 17.0 12.3 9.4 61 4.0 SW 24 35 13 19 - - 0.0
25/12:30am 17.1 11.8 10.0 63 3.8 SW 28 41 15 22 - - 0.0
25/12:00am 17.2 13.3 10.8 66 3.4 SW 22 39 12 21 - - 0.0
 
Date/Time
CDT
Temp
°C
App
Temp
°C
Dew
Point
Rel
Hum
%
Delta-T
°C
Wind Press
QNH
hPa
Press
MSL
hPa
Rain
since 9 am
mm
Dir
 
Spd
km/h
Gust
km/h
Spd
kts
Gust
kts
24/11:30pm 17.4 11.9 11.7 69 3.1 SW 32 44 17 24 - - 0.0
24/11:00pm 17.8 14.8 12.5 71 3.0 WSW 20 32 11 17 - - 0.0
24/10:30pm 17.2 13.9 14.1 82 1.8 W 24 41 13 22 - - 0.0
24/10:00pm 18.5 14.7 12.5 68 3.4 W 24 39 13 21 - - 0.0
24/09:30pm 18.1 15.3 13.2 73 2.8 WSW 20 32 11 17 - - 0.0
24/09:04pm 18.6 13.9 13.2 71 3.1 WSW 30 50 16 27 - - 0.0
24/09:00pm 18.8 14.6 13.6 72 3.0 WSW 28 46 15 25 - - 0.0
24/08:30pm 19.9 16.3 12.9 64 4.0 WSW 24 37 13 20 - - 0.0
24/08:00pm 20.3 16.1 12.3 60 4.5 WSW 26 41 14 22 - - 0.0
24/07:30pm 21.2 18.9 13.1 60 4.6 W 17 28 9 15 - - 0.0
24/07:00pm 21.6 17.3 13.2 59 4.8 WSW 28 39 15 21 - - 0.0
24/06:30pm 21.5 18.6 12.4 56 5.2 W 19 30 10 16 - - 0.0
24/06:00pm 21.7 17.6 12.8 57 5.1 WSW 26 39 14 21 - - 0.0
24/05:30pm 22.1 18.5 11.8 52 5.8 W 22 37 12 20 - - 0.0
24/05:00pm 21.6 18.6 12.5 56 5.2 W 20 30 11 16 - - 0.0
24/04:30pm 22.3 19.9 12.5 53 5.6 W 17 28 9 15 - - 0.0
24/04:00pm 22.5 20.3 12.2 52 5.8 W 15 24 8 13 - - 0.0
24/03:30pm 21.9 19.4 11.0 50 6.0 W 15 20 8 11 - - 0.0
24/03:00pm 22.4 19.3 11.5 50 6.1 WSW 19 30 10 16 - - 0.0
24/02:30pm 22.5 19.3 11.3 49 6.3 WSW 19 32 10 17 - - 0.0
24/02:00pm 21.5 18.0 10.9 51 5.8 W 20 32 11 17 - - 0.0
24/01:30pm 22.1 19.5 12.1 53 5.6 W 17 32 9 17 - - 0.0
24/01:00pm 21.4 18.8 10.6 50 5.9 WNW 15 22 8 12 - - 0.0
24/12:30pm 21.7 19.0 10.2 48 6.3 NW 15 24 8 13 - - 0.0
24/12:00pm 21.4 18.3 10.3 49 6.0 W 17 28 9 15 - - 0.0
24/11:30am 20.5 17.2 9.7 50 5.8 WNW 17 26 9 14 - - 0.0
24/11:00am 20.7 17.6 10.2 51 5.7 WNW 17 22 9 12 - - 0.0
24/10:30am 19.9 17.1 11.4 58 4.7 W 17 26 9 14 - - 0.0
24/10:00am 19.0 16.3 11.6 62 4.1 W 17 26 9 14 - - 0.0
24/09:30am 19.4 17.3 11.2 59 4.5 WNW 13 24 7 13 - - 0.0
24/09:00am 19.1 16.6 10.9 59 4.5 WNW 15 20 8 11 - - 0.0
24/08:30am 18.7 16.4 11.8 64 3.8 WNW 15 26 8 14 - - 0.0
24/08:00am 18.5 16.0 12.3 67 3.5 W 17 24 9 13 - - 0.0
24/07:30am 18.1 16.4 12.5 70 3.1 WNW 13 20 7 11 - - 0.0
24/07:00am 18.0 16.0 12.7 71 3.0 WNW 15 22 8 12 - - 0.0
24/06:30am 17.9 16.8 13.0 73 2.8 WNW 11 22 6 12 - - 0.0
24/06:00am 16.9 16.1 11.6 71 2.9 N 7 17 4 9 - - 0.0
24/05:30am 16.1 15.0 10.8 71 2.8 NE 7 9 4 5 - - 0.0
24/05:00am 15.9 14.5 10.9 72 2.7 NE 9 11 5 6 - - 0.0
24/04:30am 16.0 15.0 11.0 72 2.7 NE 7 9 4 5 - - 0.0
24/04:00am 15.8 14.9 11.4 75 2.4 NE 7 9 4 5 - - 0.0
24/03:30am 15.3 14.3 11.1 76 2.2 NE 7 9 4 5 - - 0.0
24/03:00am 15.7 14.8 11.3 75 2.4 ENE 7 11 4 6 - - 0.0
24/02:30am 15.7 14.9 11.1 74 2.5 ENE 6 7 3 4 - - 0.0
24/02:00am 15.8 14.9 11.4 75 2.4 ENE 7 11 4 6 - - 0.0
24/01:30am 15.5 14.5 11.1 75 2.4 E 7 9 4 5 - - 0.0
24/01:00am 15.7 14.7 11.1 74 2.5 E 7 9 4 5 - - 0.0
24/12:30am 15.6 14.6 11.0 74 2.5 E 7 11 4 6 - - 0.0
24/12:00am 16.0 14.6 11.0 72 2.7 ESE 9 13 5 7 - - 0.0
 
Date/Time
CDT
Temp
°C
App
Temp
°C
Dew
Point
Rel
Hum
%
Delta-T
°C
Wind Press
QNH
hPa
Press
MSL
hPa
Rain
since 9 am
mm
Dir
 
Spd
km/h
Gust
km/h
Spd
kts
Gust
kts
23/11:30pm 16.4 15.1 11.1 71 2.9 ESE 9 13 5 7 - - 0.0
23/11:00pm 16.8 15.1 11.3 70 3.0 ESE 11 15 6 8 - - 0.0
23/10:30pm 17.1 15.4 11.2 68 3.2 ESE 11 15 6 8 - - 0.0
23/10:00pm 17.6 16.3 11.2 66 3.5 ESE 9 17 5 9 - - 0.0
23/09:30pm 17.9 15.7 10.8 63 3.8 SSE 13 17 7 9 - - 0.0
23/09:00pm 18.5 15.7 10.1 58 4.5 SSE 15 20 8 11 - - 0.0
23/08:30pm 19.8 16.9 9.7 52 5.4 SSE 15 22 8 12 - - 0.0
23/08:00pm 21.1 17.8 9.7 48 6.1 S 17 22 9 12 - - 0.0
23/07:30pm 22.2 19.3 9.7 45 6.8 S 15 24 8 13 - - 0.0
23/07:00pm 22.4 18.8 10.5 47 6.5 SW 20 30 11 16 - - 0.0

Other Formats:

Comma delimited format used in spreadsheet applications
http://www.bom.gov.au/fwo/IDS60801/IDS60801.94808.axf

JavaScript Object Notation format (JSON) in row-major order
http://www.bom.gov.au/fwo/IDS60801/IDS60801.94808.json